sensor_id;sensor_type;location;lat;lon;timestamp;noise_LAeq;noise_LA_min;noise_LA_max;noise_LA01;noise_LA95
72466;Laerm;60471;52.150;4.508;2022-07-23T00:00:59;42.06;36.25;50.98;;
72466;Laerm;60471;52.150;4.508;2022-07-23T00:03:26;41.88;36.09;51.07;;
72466;Laerm;60471;52.150;4.508;2022-07-23T00:05:52;47.95;36.42;61.07;;
72466;Laerm;60471;52.150;4.508;2022-07-23T00:08:19;46.49;36.76;58.71;;
72466;Laerm;60471;52.150;4.508;2022-07-23T00:10:45;45.51;36.13;57.59;;
72466;Laerm;60471;52.150;4.508;2022-07-23T00:13:11;41.89;36.40;51.05;;
72466;Laerm;60471;52.150;4.508;2022-07-23T00:15:37;46.22;36.14;60.93;;
72466;Laerm;60471;52.150;4.508;2022-07-23T00:18:04;41.70;36.25;51.56;;
72466;Laerm;60471;52.150;4.508;2022-07-23T00:20:30;41.97;36.27;51.08;;
72466;Laerm;60471;52.150;4.508;2022-07-23T00:22:56;42.21;36.18;51.32;;
72466;Laerm;60471;52.150;4.508;2022-07-23T00:25:23;47.00;36.47;60.10;;
72466;Laerm;60471;52.150;4.508;2022-07-23T00:27:49;45.05;37.01;53.81;;
72466;Laerm;60471;52.150;4.508;2022-07-23T00:30:16;41.82;36.00;51.38;;
72466;Laerm;60471;52.150;4.508;2022-07-23T00:32:52;49.17;36.04;67.52;;
72466;Laerm;60471;52.150;4.508;2022-07-23T00:35:23;46.95;36.49;58.36;;
72466;Laerm;60471;52.150;4.508;2022-07-23T00:37:49;42.34;36.76;50.71;;
72466;Laerm;60471;52.150;4.508;2022-07-23T00:40:16;44.00;36.27;52.50;;
72466;Laerm;60471;52.150;4.508;2022-07-23T00:42:42;41.99;35.99;50.85;;
72466;Laerm;60471;52.150;4.508;2022-07-23T00:45:09;45.22;36.43;57.28;;
72466;Laerm;60471;52.150;4.508;2022-07-23T00:47:36;44.13;36.66;56.78;;
72466;Laerm;60471;52.150;4.508;2022-07-23T00:50:05;47.77;36.08;61.56;;
72466;Laerm;60471;52.150;4.508;2022-07-23T00:52:33;41.85;35.74;51.45;;
72466;Laerm;60471;52.150;4.508;2022-07-23T00:55:01;42.10;36.44;50.60;;
72466;Laerm;60471;52.150;4.508;2022-07-23T00:57:28;42.09;36.27;50.73;;
72466;Laerm;60471;52.150;4.508;2022-07-23T00:59:55;43.36;36.89;51.17;;
72466;Laerm;60471;52.150;4.508;2022-07-23T01:02:21;42.68;36.86;51.55;;
72466;Laerm;60471;52.150;4.508;2022-07-23T01:04:47;46.81;35.89;60.46;;
72466;Laerm;60471;52.150;4.508;2022-07-23T01:07:14;41.84;35.70;50.70;;
72466;Laerm;60471;52.150;4.508;2022-07-23T01:09:42;42.01;36.86;50.72;;
72466;Laerm;60471;52.150;4.508;2022-07-23T01:12:09;46.11;36.09;63.20;;
72466;Laerm;60471;52.150;4.508;2022-07-23T01:14:35;43.43;37.04;54.17;;
72466;Laerm;60471;52.150;4.508;2022-07-23T01:17:01;43.02;36.00;54.56;;
72466;Laerm;60471;52.150;4.508;2022-07-23T01:19:28;42.23;35.83;52.68;;
72466;Laerm;60471;52.150;4.508;2022-07-23T01:21:57;50.50;36.19;64.57;;
72466;Laerm;60471;52.150;4.508;2022-07-23T01:24:24;42.38;36.61;51.00;;
72466;Laerm;60471;52.150;4.508;2022-07-23T01:26:50;41.81;36.50;50.92;;
72466;Laerm;60471;52.150;4.508;2022-07-23T01:29:17;42.81;36.55;51.79;;
72466;Laerm;60471;52.150;4.508;2022-07-23T01:31:43;41.89;35.87;51.33;;
72466;Laerm;60471;52.150;4.508;2022-07-23T01:34:10;44.25;36.18;55.69;;
72466;Laerm;60471;52.150;4.508;2022-07-23T01:36:37;44.33;36.37;56.61;;
72466;Laerm;60471;52.150;4.508;2022-07-23T01:39:07;42.67;36.19;56.04;;
72466;Laerm;60471;52.150;4.508;2022-07-23T01:41:34;44.77;36.86;55.33;;
72466;Laerm;60471;52.150;4.508;2022-07-23T01:44:00;42.05;36.25;51.87;;
72466;Laerm;60471;52.150;4.508;2022-07-23T01:46:26;41.81;35.78;51.72;;
72466;Laerm;60471;52.150;4.508;2022-07-23T01:48:52;42.10;35.90;50.43;;
72466;Laerm;60471;52.150;4.508;2022-07-23T01:51:19;41.67;36.11;51.03;;
72466;Laerm;60471;52.150;4.508;2022-07-23T01:53:45;48.25;36.43;62.60;;
72466;Laerm;60471;52.150;4.508;2022-07-23T01:56:11;44.74;36.50;55.74;;
72466;Laerm;60471;52.150;4.508;2022-07-23T01:58:37;42.12;36.34;50.92;;
72466;Laerm;60471;52.150;4.508;2022-07-23T02:01:03;42.23;36.21;51.37;;
72466;Laerm;60471;52.150;4.508;2022-07-23T02:03:30;63.34;37.30;79.24;;
72466;Laerm;60471;52.150;4.508;2022-07-23T02:05:56;42.87;36.58;50.80;;
72466;Laerm;60471;52.150;4.508;2022-07-23T02:08:22;42.47;36.83;51.13;;
72466;Laerm;60471;52.150;4.508;2022-07-23T02:10:49;42.15;36.77;51.35;;
72466;Laerm;60471;52.150;4.508;2022-07-23T02:13:17;42.32;36.22;52.65;;
72466;Laerm;60471;52.150;4.508;2022-07-23T02:15:46;42.27;36.22;51.17;;
72466;Laerm;60471;52.150;4.508;2022-07-23T02:18:13;42.42;36.10;58.66;;
72466;Laerm;60471;52.150;4.508;2022-07-23T02:20:40;46.12;36.70;56.00;;
72466;Laerm;60471;52.150;4.508;2022-07-23T02:23:06;41.61;35.79;50.64;;
72466;Laerm;60471;52.150;4.508;2022-07-23T02:25:34;41.53;36.19;50.68;;
72466;Laerm;60471;52.150;4.508;2022-07-23T02:28:03;41.57;35.86;51.33;;
72466;Laerm;60471;52.150;4.508;2022-07-23T02:30:29;42.82;36.29;51.57;;
72466;Laerm;60471;52.150;4.508;2022-07-23T02:32:55;49.22;35.99;65.95;;
72466;Laerm;60471;52.150;4.508;2022-07-23T02:35:22;41.54;35.78;50.44;;
72466;Laerm;60471;52.150;4.508;2022-07-23T02:37:49;41.52;35.92;51.01;;
72466;Laerm;60471;52.150;4.508;2022-07-23T02:40:15;44.01;35.92;54.98;;
72466;Laerm;60471;52.150;4.508;2022-07-23T02:42:41;41.57;36.04;50.50;;
72466;Laerm;60471;52.150;4.508;2022-07-23T02:45:09;41.58;35.91;50.66;;
72466;Laerm;60471;52.150;4.508;2022-07-23T02:47:35;41.83;36.04;50.62;;
72466;Laerm;60471;52.150;4.508;2022-07-23T02:50:01;42.76;37.47;51.00;;
72466;Laerm;60471;52.150;4.508;2022-07-23T02:52:27;42.48;36.90;52.26;;
72466;Laerm;60471;52.150;4.508;2022-07-23T02:54:54;42.21;36.61;50.92;;
72466;Laerm;60471;52.150;4.508;2022-07-23T02:57:20;42.55;36.79;51.83;;
72466;Laerm;60471;52.150;4.508;2022-07-23T02:59:46;42.82;37.34;50.90;;
72466;Laerm;60471;52.150;4.508;2022-07-23T03:02:12;42.94;37.12;55.16;;
72466;Laerm;60471;52.150;4.508;2022-07-23T03:04:39;42.78;37.27;51.85;;
72466;Laerm;60471;52.150;4.508;2022-07-23T03:07:08;42.52;36.42;52.03;;
72466;Laerm;60471;52.150;4.508;2022-07-23T03:09:34;47.61;36.16;60.15;;
72466;Laerm;60471;52.150;4.508;2022-07-23T03:12:00;42.53;37.29;50.97;;
72466;Laerm;60471;52.150;4.508;2022-07-23T03:14:27;46.19;37.02;58.68;;
72466;Laerm;60471;52.150;4.508;2022-07-23T03:16:53;43.47;37.14;59.66;;
72466;Laerm;60471;52.150;4.508;2022-07-23T03:19:20;42.78;37.10;54.98;;
72466;Laerm;60471;52.150;4.508;2022-07-23T03:21:46;43.21;37.16;51.26;;
72466;Laerm;60471;52.150;4.508;2022-07-23T03:24:12;43.45;37.55;55.46;;
72466;Laerm;60471;52.150;4.508;2022-07-23T03:26:39;45.04;37.64;57.62;;
72466;Laerm;60471;52.150;4.508;2022-07-23T03:29:05;48.56;38.02;61.84;;
72466;Laerm;60471;52.150;4.508;2022-07-23T03:31:32;53.72;38.15;63.46;;
72466;Laerm;60471;52.150;4.508;2022-07-23T03:33:58;48.28;37.94;63.92;;
72466;Laerm;60471;52.150;4.508;2022-07-23T03:36:25;43.75;37.39;52.26;;
72466;Laerm;60471;52.150;4.508;2022-07-23T03:38:52;43.48;37.17;53.79;;
72466;Laerm;60471;52.150;4.508;2022-07-23T03:41:19;43.52;37.53;54.58;;
72466;Laerm;60471;52.150;4.508;2022-07-23T03:43:46;42.85;37.70;51.24;;
72466;Laerm;60471;52.150;4.508;2022-07-23T03:46:13;43.79;37.68;55.37;;
72466;Laerm;60471;52.150;4.508;2022-07-23T03:48:39;44.46;37.19;56.12;;
72466;Laerm;60471;52.150;4.508;2022-07-23T03:51:05;43.98;37.61;54.32;;
72466;Laerm;60471;52.150;4.508;2022-07-23T03:53:31;44.28;37.98;52.48;;
72466;Laerm;60471;52.150;4.508;2022-07-23T03:55:58;47.26;38.19;62.26;;
72466;Laerm;60471;52.150;4.508;2022-07-23T03:58:24;43.44;37.49;54.93;;
72466;Laerm;60471;52.150;4.508;2022-07-23T04:00:50;43.27;37.98;51.88;;
72466;Laerm;60471;52.150;4.508;2022-07-23T04:03:16;42.95;36.94;53.16;;
72466;Laerm;60471;52.150;4.508;2022-07-23T04:05:42;47.64;37.68;59.50;;
72466;Laerm;60471;52.150;4.508;2022-07-23T04:08:09;44.64;37.88;53.44;;
72466;Laerm;60471;52.150;4.508;2022-07-23T04:10:35;46.22;37.46;62.13;;
72466;Laerm;60471;52.150;4.508;2022-07-23T04:13:01;46.31;37.50;57.29;;
72466;Laerm;60471;52.150;4.508;2022-07-23T04:15:28;47.12;37.94;59.18;;
72466;Laerm;60471;52.150;4.508;2022-07-23T04:17:54;43.57;37.18;52.08;;
72466;Laerm;60471;52.150;4.508;2022-07-23T04:20:20;44.04;37.73;60.02;;
72466;Laerm;60471;52.150;4.508;2022-07-23T04:22:46;47.07;37.92;56.26;;
72466;Laerm;60471;52.150;4.508;2022-07-23T04:25:12;44.73;39.08;58.60;;
72466;Laerm;60471;52.150;4.508;2022-07-23T04:27:39;43.90;38.62;52.28;;
72466;Laerm;60471;52.150;4.508;2022-07-23T04:30:06;44.63;38.67;56.84;;
72466;Laerm;60471;52.150;4.508;2022-07-23T04:32:33;44.58;39.41;53.75;;
72466;Laerm;60471;52.150;4.508;2022-07-23T04:34:59;53.87;39.93;66.67;;
72466;Laerm;60471;52.150;4.508;2022-07-23T04:37:25;48.99;38.95;59.33;;
72466;Laerm;60471;52.150;4.508;2022-07-23T04:39:52;48.22;38.89;59.65;;
72466;Laerm;60471;52.150;4.508;2022-07-23T04:42:18;47.54;38.45;58.46;;
72466;Laerm;60471;52.150;4.508;2022-07-23T04:44:44;47.17;39.68;57.75;;
72466;Laerm;60471;52.150;4.508;2022-07-23T04:47:10;46.45;40.27;60.10;;
72466;Laerm;60471;52.150;4.508;2022-07-23T04:49:37;48.18;40.88;57.44;;
72466;Laerm;60471;52.150;4.508;2022-07-23T04:52:03;47.03;40.46;58.10;;
72466;Laerm;60471;52.150;4.508;2022-07-23T04:54:29;50.13;40.03;60.97;;
72466;Laerm;60471;52.150;4.508;2022-07-23T04:56:56;49.27;40.16;59.58;;
72466;Laerm;60471;52.150;4.508;2022-07-23T04:59:22;47.45;40.27;55.52;;
72466;Laerm;60471;52.150;4.508;2022-07-23T05:01:48;49.02;40.71;58.94;;
72466;Laerm;60471;52.150;4.508;2022-07-23T05:04:14;48.28;43.86;53.86;;
72466;Laerm;60471;52.150;4.508;2022-07-23T05:06:40;50.35;44.83;58.64;;
72466;Laerm;60471;52.150;4.508;2022-07-23T05:09:07;50.77;45.28;63.05;;
72466;Laerm;60471;52.150;4.508;2022-07-23T05:11:33;50.86;44.34;59.93;;
72466;Laerm;60471;52.150;4.508;2022-07-23T05:13:59;48.26;44.03;54.66;;
72466;Laerm;60471;52.150;4.508;2022-07-23T05:16:25;49.60;42.14;59.39;;
72466;Laerm;60471;52.150;4.508;2022-07-23T05:18:51;53.38;44.11;66.04;;
72466;Laerm;60471;52.150;4.508;2022-07-23T05:21:18;49.41;44.41;56.35;;
72466;Laerm;60471;52.150;4.508;2022-07-23T05:23:45;49.87;42.72;66.22;;
72466;Laerm;60471;52.150;4.508;2022-07-23T05:26:11;52.69;43.12;63.87;;
72466;Laerm;60471;52.150;4.508;2022-07-23T05:28:37;49.91;41.43;60.35;;
72466;Laerm;60471;52.150;4.508;2022-07-23T05:31:03;50.63;44.05;58.28;;
72466;Laerm;60471;52.150;4.508;2022-07-23T05:33:30;56.17;41.62;69.07;;
72466;Laerm;60471;52.150;4.508;2022-07-23T05:36:04;47.60;41.87;57.43;;
72466;Laerm;60471;52.150;4.508;2022-07-23T05:38:32;48.41;42.03;56.25;;
72466;Laerm;60471;52.150;4.508;2022-07-23T05:40:59;51.28;42.85;64.68;;
72466;Laerm;60471;52.150;4.508;2022-07-23T05:43:25;60.69;41.72;73.49;;
72466;Laerm;60471;52.150;4.508;2022-07-23T05:45:51;51.34;41.82;69.25;;
72466;Laerm;60471;52.150;4.508;2022-07-23T05:48:18;43.45;38.26;51.97;;
72466;Laerm;60471;52.150;4.508;2022-07-23T05:50:44;44.06;37.95;57.24;;
72466;Laerm;60471;52.150;4.508;2022-07-23T05:53:10;49.89;38.59;64.37;;
72466;Laerm;60471;52.150;4.508;2022-07-23T05:55:36;51.16;40.19;62.14;;
72466;Laerm;60471;52.150;4.508;2022-07-23T05:58:03;49.14;39.14;59.87;;
72466;Laerm;60471;52.150;4.508;2022-07-23T06:00:29;47.00;38.69;66.35;;
72466;Laerm;60471;52.150;4.508;2022-07-23T06:02:56;49.09;38.97;63.72;;
72466;Laerm;60471;52.150;4.508;2022-07-23T06:05:23;47.90;39.26;56.08;;
72466;Laerm;60471;52.150;4.508;2022-07-23T06:07:50;49.98;38.57;65.35;;
72466;Laerm;60471;52.150;4.508;2022-07-23T06:10:17;46.42;37.89;55.65;;
72466;Laerm;60471;52.150;4.508;2022-07-23T06:12:43;47.01;38.80;56.68;;
72466;Laerm;60471;52.150;4.508;2022-07-23T06:15:10;46.76;39.55;56.99;;
72466;Laerm;60471;52.150;4.508;2022-07-23T06:17:38;50.55;39.44;59.36;;
72466;Laerm;60471;52.150;4.508;2022-07-23T06:20:07;50.24;41.10;59.32;;
72466;Laerm;60471;52.150;4.508;2022-07-23T06:22:34;47.69;39.79;58.03;;
72466;Laerm;60471;52.150;4.508;2022-07-23T06:25:00;50.28;41.57;64.92;;
72466;Laerm;60471;52.150;4.508;2022-07-23T06:27:27;50.59;40.79;68.11;;
72466;Laerm;60471;52.150;4.508;2022-07-23T06:29:53;49.43;42.48;61.10;;
72466;Laerm;60471;52.150;4.508;2022-07-23T06:32:20;48.42;41.85;69.99;;
72466;Laerm;60471;52.150;4.508;2022-07-23T06:34:47;50.31;41.92;59.70;;
72466;Laerm;60471;52.150;4.508;2022-07-23T06:37:13;49.30;42.28;58.29;;
72466;Laerm;60471;52.150;4.508;2022-07-23T06:39:39;49.02;42.29;59.56;;
72466;Laerm;60471;52.150;4.508;2022-07-23T06:42:05;51.24;41.87;70.54;;
72466;Laerm;60471;52.150;4.508;2022-07-23T06:44:32;48.27;42.09;60.30;;
72466;Laerm;60471;52.150;4.508;2022-07-23T06:46:58;49.57;42.14;62.07;;
72466;Laerm;60471;52.150;4.508;2022-07-23T06:49:24;48.92;42.32;60.66;;
72466;Laerm;60471;52.150;4.508;2022-07-23T06:51:50;50.27;42.05;56.77;;
72466;Laerm;60471;52.150;4.508;2022-07-23T06:54:16;49.76;40.02;61.26;;
72466;Laerm;60471;52.150;4.508;2022-07-23T06:56:43;50.91;40.49;62.53;;
72466;Laerm;60471;52.150;4.508;2022-07-23T06:59:10;53.78;44.29;66.67;;
72466;Laerm;60471;52.150;4.508;2022-07-23T07:01:36;49.85;41.58;59.55;;
72466;Laerm;60471;52.150;4.508;2022-07-23T07:04:03;48.36;40.29;66.79;;
72466;Laerm;60471;52.150;4.508;2022-07-23T07:06:29;49.33;41.05;64.50;;
72466;Laerm;60471;52.150;4.508;2022-07-23T07:08:56;48.37;40.66;59.26;;
72466;Laerm;60471;52.150;4.508;2022-07-23T07:11:23;51.52;40.15;62.88;;
72466;Laerm;60471;52.150;4.508;2022-07-23T07:13:51;50.09;41.87;58.35;;
72466;Laerm;60471;52.150;4.508;2022-07-23T07:16:17;52.18;41.41;62.08;;
72466;Laerm;60471;52.150;4.508;2022-07-23T07:18:44;50.35;41.39;62.63;;
72466;Laerm;60471;52.150;4.508;2022-07-23T07:21:10;48.80;41.35;58.79;;
72466;Laerm;60471;52.150;4.508;2022-07-23T07:23:36;49.98;41.13;62.30;;
72466;Laerm;60471;52.150;4.508;2022-07-23T07:26:03;48.99;40.78;60.04;;
72466;Laerm;60471;52.150;4.508;2022-07-23T07:28:29;53.02;42.30;60.92;;
72466;Laerm;60471;52.150;4.508;2022-07-23T07:30:55;52.85;43.28;66.74;;
72466;Laerm;60471;52.150;4.508;2022-07-23T07:33:21;50.25;41.14;59.45;;
72466;Laerm;60471;52.150;4.508;2022-07-23T07:35:48;50.91;41.72;62.89;;
72466;Laerm;60471;52.150;4.508;2022-07-23T07:38:14;50.06;41.28;60.48;;
72466;Laerm;60471;52.150;4.508;2022-07-23T07:40:40;54.82;42.27;65.54;;
72466;Laerm;60471;52.150;4.508;2022-07-23T07:43:06;51.03;41.69;65.28;;
72466;Laerm;60471;52.150;4.508;2022-07-23T07:45:32;51.17;42.51;65.73;;
72466;Laerm;60471;52.150;4.508;2022-07-23T07:47:59;51.83;43.48;60.15;;
72466;Laerm;60471;52.150;4.508;2022-07-23T07:50:25;52.56;41.62;66.61;;
72466;Laerm;60471;52.150;4.508;2022-07-23T07:52:52;52.51;40.79;78.78;;
72466;Laerm;60471;52.150;4.508;2022-07-23T07:55:18;54.32;39.85;79.00;;
72466;Laerm;60471;52.150;4.508;2022-07-23T07:57:44;51.78;40.25;59.32;;
72466;Laerm;60471;52.150;4.508;2022-07-23T08:00:11;51.70;41.73;60.93;;
72466;Laerm;60471;52.150;4.508;2022-07-23T08:02:52;49.98;41.25;58.98;;
72466;Laerm;60471;52.150;4.508;2022-07-23T08:05:21;54.36;45.20;62.69;;
72466;Laerm;60471;52.150;4.508;2022-07-23T08:07:48;47.38;41.04;55.24;;
72466;Laerm;60471;52.150;4.508;2022-07-23T08:10:15;50.84;42.84;59.35;;
72466;Laerm;60471;52.150;4.508;2022-07-23T08:12:51;50.89;41.06;64.26;;
72466;Laerm;60471;52.150;4.508;2022-07-23T08:15:21;51.45;39.95;60.31;;
72466;Laerm;60471;52.150;4.508;2022-07-23T08:17:48;52.96;42.15;63.69;;
72466;Laerm;60471;52.150;4.508;2022-07-23T08:20:18;49.90;40.95;65.99;;
72466;Laerm;60471;52.150;4.508;2022-07-23T08:22:49;52.36;43.67;78.87;;
72466;Laerm;60471;52.150;4.508;2022-07-23T08:25:19;50.52;42.21;65.15;;
72466;Laerm;60471;52.150;4.508;2022-07-23T08:27:46;50.73;42.89;69.95;;
72466;Laerm;60471;52.150;4.508;2022-07-23T08:30:12;52.33;45.02;68.84;;
72466;Laerm;60471;52.150;4.508;2022-07-23T08:35:48;51.76;43.85;64.11;;
72466;Laerm;60471;52.150;4.508;2022-07-23T08:38:19;51.32;43.80;61.54;;
72466;Laerm;60471;52.150;4.508;2022-07-23T08:40:48;52.49;43.33;63.98;;
72466;Laerm;60471;52.150;4.508;2022-07-23T08:43:20;54.87;44.73;68.91;;
72466;Laerm;60471;52.150;4.508;2022-07-23T08:45:50;53.80;45.09;64.29;;
72466;Laerm;60471;52.150;4.508;2022-07-23T08:48:23;54.97;43.70;70.53;;
72466;Laerm;60471;52.150;4.508;2022-07-23T08:50:53;51.68;44.15;60.51;;
72466;Laerm;60471;52.150;4.508;2022-07-23T08:53:23;55.17;45.54;76.27;;
72466;Laerm;60471;52.150;4.508;2022-07-23T08:55:53;56.18;47.56;73.78;;
72466;Laerm;60471;52.150;4.508;2022-07-23T08:58:21;57.51;50.05;78.35;;
72466;Laerm;60471;52.150;4.508;2022-07-23T09:00:48;52.94;46.06;74.13;;
72466;Laerm;60471;52.150;4.508;2022-07-23T09:03:21;54.36;42.94;75.21;;
72466;Laerm;60471;52.150;4.508;2022-07-23T09:05:51;52.91;44.06;59.18;;
72466;Laerm;60471;52.150;4.508;2022-07-23T09:08:45;54.19;46.62;61.92;;
72466;Laerm;60471;52.150;4.508;2022-07-23T09:11:16;51.73;44.37;59.55;;
72466;Laerm;60471;52.150;4.508;2022-07-23T09:13:50;52.14;43.76;60.68;;
72466;Laerm;60471;52.150;4.508;2022-07-23T09:16:28;57.03;42.96;71.68;;
72466;Laerm;60471;52.150;4.508;2022-07-23T09:19:02;51.72;44.11;60.75;;
72466;Laerm;60471;52.150;4.508;2022-07-23T09:21:36;54.27;47.27;63.01;;
72466;Laerm;60471;52.150;4.508;2022-07-23T09:24:09;51.99;45.96;62.88;;
72466;Laerm;60471;52.150;4.508;2022-07-23T09:26:44;54.62;47.88;80.96;;
72466;Laerm;60471;52.150;4.508;2022-07-23T09:29:24;53.92;45.70;64.46;;
72466;Laerm;60471;52.150;4.508;2022-07-23T09:31:55;53.55;45.98;64.90;;
72466;Laerm;60471;52.150;4.508;2022-07-23T09:34:31;53.42;46.26;60.96;;
72466;Laerm;60471;52.150;4.508;2022-07-23T09:37:15;52.73;47.27;70.16;;
72466;Laerm;60471;52.150;4.508;2022-07-23T09:39:44;52.28;46.52;62.83;;
72466;Laerm;60471;52.150;4.508;2022-07-23T09:42:20;54.59;45.40;77.54;;
72466;Laerm;60471;52.150;4.508;2022-07-23T09:44:50;56.89;45.77;84.86;;
72466;Laerm;60471;52.150;4.508;2022-07-23T09:47:18;60.92;47.17;84.88;;
72466;Laerm;60471;52.150;4.508;2022-07-23T09:50:10;58.05;48.07;79.70;;
72466;Laerm;60471;52.150;4.508;2022-07-23T09:55:08;52.12;45.39;64.64;;
72466;Laerm;60471;52.150;4.508;2022-07-23T09:57:35;53.73;47.10;66.74;;
72466;Laerm;60471;52.150;4.508;2022-07-23T10:00:05;51.92;46.31;60.54;;
72466;Laerm;60471;52.150;4.508;2022-07-23T10:02:33;52.88;46.39;63.55;;
72466;Laerm;60471;52.150;4.508;2022-07-23T10:05:01;56.92;44.94;71.66;;
72466;Laerm;60471;52.150;4.508;2022-07-23T10:07:37;54.34;47.49;72.74;;
72466;Laerm;60471;52.150;4.508;2022-07-23T10:10:05;53.17;45.46;64.34;;
72466;Laerm;60471;52.150;4.508;2022-07-23T10:12:32;52.83;46.02;59.61;;
72466;Laerm;60471;52.150;4.508;2022-07-23T10:15:22;53.34;45.52;64.62;;
72466;Laerm;60471;52.150;4.508;2022-07-23T10:17:48;52.39;45.23;61.57;;
72466;Laerm;60471;52.150;4.508;2022-07-23T10:20:14;53.54;47.23;60.98;;
72466;Laerm;60471;52.150;4.508;2022-07-23T10:23:27;55.26;47.00;70.39;;
72466;Laerm;60471;52.150;4.508;2022-07-23T10:26:26;54.76;46.55;74.63;;
72466;Laerm;60471;52.150;4.508;2022-07-23T10:37:49;53.69;45.09;75.39;;
72466;Laerm;60471;52.150;4.508;2022-07-23T10:40:20;52.31;45.11;69.08;;
72466;Laerm;60471;52.150;4.508;2022-07-23T10:42:50;53.92;47.98;64.27;;
72466;Laerm;60471;52.150;4.508;2022-07-23T10:45:34;53.48;47.54;71.03;;
72466;Laerm;60471;52.150;4.508;2022-07-23T10:48:18;54.01;46.52;73.93;;
72466;Laerm;60471;52.150;4.508;2022-07-23T10:51:15;55.31;48.70;72.95;;
72466;Laerm;60471;52.150;4.508;2022-07-23T10:54:20;58.34;52.64;66.31;;
72466;Laerm;60471;52.150;4.508;2022-07-23T10:57:04;55.91;48.56;74.64;;
72466;Laerm;60471;52.150;4.508;2022-07-23T11:00:09;59.14;47.40;70.05;;
72466;Laerm;60471;52.150;4.508;2022-07-23T11:02:44;56.32;49.38;69.56;;
72466;Laerm;60471;52.150;4.508;2022-07-23T11:05:24;53.85;46.64;66.39;;
72466;Laerm;60471;52.150;4.508;2022-07-23T11:13:37;56.04;46.94;74.03;;
72466;Laerm;60471;52.150;4.508;2022-07-23T11:16:16;54.02;47.07;75.16;;
72466;Laerm;60471;52.150;4.508;2022-07-23T11:24:09;56.25;47.86;81.27;;
72466;Laerm;60471;52.150;4.508;2022-07-23T11:32:09;53.75;45.15;76.03;;
72466;Laerm;60471;52.150;4.508;2022-07-23T11:34:49;54.32;47.14;75.58;;
72466;Laerm;60471;52.150;4.508;2022-07-23T11:37:45;54.12;46.93;77.05;;
72466;Laerm;60471;52.150;4.508;2022-07-23T11:40:15;57.19;46.05;84.90;;
72466;Laerm;60471;52.150;4.508;2022-07-23T11:43:00;57.68;46.23;72.53;;
72466;Laerm;60471;52.150;4.508;2022-07-23T11:48:05;53.96;45.85;70.69;;
72466;Laerm;60471;52.150;4.508;2022-07-23T11:50:32;53.30;46.76;70.02;;
72466;Laerm;60471;52.150;4.508;2022-07-23T11:52:59;52.99;47.49;67.04;;
72466;Laerm;60471;52.150;4.508;2022-07-23T11:55:26;53.26;47.76;66.19;;
72466;Laerm;60471;52.150;4.508;2022-07-23T11:57:55;54.73;46.90;69.49;;
72466;Laerm;60471;52.150;4.508;2022-07-23T12:00:29;54.87;48.13;76.85;;
72466;Laerm;60471;52.150;4.508;2022-07-23T12:03:00;56.42;47.58;68.17;;
72466;Laerm;60471;52.150;4.508;2022-07-23T12:05:36;55.16;46.42;80.82;;
72466;Laerm;60471;52.150;4.508;2022-07-23T12:08:06;54.39;47.88;76.15;;
72466;Laerm;60471;52.150;4.508;2022-07-23T12:10:44;53.39;46.60;60.36;;
72466;Laerm;60471;52.150;4.508;2022-07-23T12:13:15;53.48;46.23;66.13;;
72466;Laerm;60471;52.150;4.508;2022-07-23T12:15:45;52.60;46.43;67.16;;
72466;Laerm;60471;52.150;4.508;2022-07-23T12:18:20;50.89;44.96;61.10;;
72466;Laerm;60471;52.150;4.508;2022-07-23T12:20:54;52.71;46.91;60.58;;
72466;Laerm;60471;52.150;4.508;2022-07-23T12:23:23;54.02;48.53;64.20;;
72466;Laerm;60471;52.150;4.508;2022-07-23T12:25:51;54.82;49.08;66.64;;
72466;Laerm;60471;52.150;4.508;2022-07-23T12:28:30;55.41;48.95;68.59;;
72466;Laerm;60471;52.150;4.508;2022-07-23T12:30:59;54.63;49.44;63.40;;
72466;Laerm;60471;52.150;4.508;2022-07-23T12:33:32;53.48;47.43;64.61;;
72466;Laerm;60471;52.150;4.508;2022-07-23T12:36:02;54.39;48.82;66.35;;
72466;Laerm;60471;52.150;4.508;2022-07-23T12:38:54;54.63;47.03;68.91;;
72466;Laerm;60471;52.150;4.508;2022-07-23T12:41:20;53.96;49.53;63.23;;
72466;Laerm;60471;52.150;4.508;2022-07-23T12:43:46;53.53;47.60;69.95;;
72466;Laerm;60471;52.150;4.508;2022-07-23T12:46:18;51.82;46.03;62.37;;
72466;Laerm;60471;52.150;4.508;2022-07-23T12:51:19;58.75;50.86;74.51;;
72466;Laerm;60471;52.150;4.508;2022-07-23T12:53:50;54.71;47.01;76.89;;
72466;Laerm;60471;52.150;4.508;2022-07-23T12:56:31;54.43;47.24;72.41;;
72466;Laerm;60471;52.150;4.508;2022-07-23T13:01:33;50.66;43.39;67.74;;
72466;Laerm;60471;52.150;4.508;2022-07-23T13:04:17;61.88;43.96;85.09;;
72466;Laerm;60471;52.150;4.508;2022-07-23T13:06:53;53.73;47.80;72.07;;
72466;Laerm;60471;52.150;4.508;2022-07-23T13:09:24;52.94;45.09;63.74;;
72466;Laerm;60471;52.150;4.508;2022-07-23T13:11:53;52.90;45.20;76.41;;
72466;Laerm;60471;52.150;4.508;2022-07-23T13:14:20;52.67;47.04;62.23;;
72466;Laerm;60471;52.150;4.508;2022-07-23T13:16:50;53.31;46.77;64.29;;
72466;Laerm;60471;52.150;4.508;2022-07-23T13:19:17;53.32;46.08;63.42;;
72466;Laerm;60471;52.150;4.508;2022-07-23T13:21:43;53.17;45.65;69.35;;
72466;Laerm;60471;52.150;4.508;2022-07-23T13:24:11;54.25;46.07;62.11;;
72466;Laerm;60471;52.150;4.508;2022-07-23T13:26:39;49.69;43.50;62.70;;
72466;Laerm;60471;52.150;4.508;2022-07-23T13:29:06;52.15;45.27;73.29;;
72466;Laerm;60471;52.150;4.508;2022-07-23T13:31:33;54.32;48.49;66.22;;
72466;Laerm;60471;52.150;4.508;2022-07-23T13:33:59;55.14;45.71;85.60;;
72466;Laerm;60471;52.150;4.508;2022-07-23T13:36:25;53.65;46.07;66.95;;
72466;Laerm;60471;52.150;4.508;2022-07-23T13:38:52;52.84;45.28;76.38;;
72466;Laerm;60471;52.150;4.508;2022-07-23T13:41:18;53.00;46.64;72.68;;
72466;Laerm;60471;52.150;4.508;2022-07-23T13:43:45;53.84;47.43;74.95;;
72466;Laerm;60471;52.150;4.508;2022-07-23T13:46:11;52.26;44.64;63.37;;
72466;Laerm;60471;52.150;4.508;2022-07-23T13:48:37;51.80;43.65;72.87;;
72466;Laerm;60471;52.150;4.508;2022-07-23T13:51:03;53.09;44.72;66.75;;
72466;Laerm;60471;52.150;4.508;2022-07-23T13:53:30;53.24;45.02;71.91;;
72466;Laerm;60471;52.150;4.508;2022-07-23T13:55:56;53.21;45.22;72.44;;
72466;Laerm;60471;52.150;4.508;2022-07-23T13:58:23;52.90;46.02;74.69;;
72466;Laerm;60471;52.150;4.508;2022-07-23T14:00:52;55.94;47.17;70.55;;
72466;Laerm;60471;52.150;4.508;2022-07-23T14:03:21;56.56;47.24;72.22;;
72466;Laerm;60471;52.150;4.508;2022-07-23T14:05:50;53.38;46.74;65.49;;
72466;Laerm;60471;52.150;4.508;2022-07-23T14:08:17;53.53;46.53;79.37;;
72466;Laerm;60471;52.150;4.508;2022-07-23T14:10:43;52.45;47.34;70.36;;
72466;Laerm;60471;52.150;4.508;2022-07-23T14:13:09;52.67;45.82;60.56;;
72466;Laerm;60471;52.150;4.508;2022-07-23T14:15:35;54.95;45.85;80.72;;
72466;Laerm;60471;52.150;4.508;2022-07-23T14:18:05;58.14;45.23;73.18;;
72466;Laerm;60471;52.150;4.508;2022-07-23T14:20:31;54.74;46.91;65.75;;
72466;Laerm;60471;52.150;4.508;2022-07-23T14:22:57;53.06;47.66;72.00;;
72466;Laerm;60471;52.150;4.508;2022-07-23T14:25:28;53.05;47.42;67.48;;
72466;Laerm;60471;52.150;4.508;2022-07-23T14:27:54;53.30;46.70;66.03;;
72466;Laerm;60471;52.150;4.508;2022-07-23T14:30:20;52.52;44.52;72.52;;
72466;Laerm;60471;52.150;4.508;2022-07-23T14:32:50;53.25;44.09;75.58;;